Terminal Aerodrome Forecast
Issued by NWS Binghamton, NY

Home | Current Version | Previous Version | Text Only | Print | Product List | Glossary On
Versions: 1 2 3 4 5 6 7 8 9 10 11 12 13 14 15 16 17 18 19 20 21 22 23 24
000
FTUS41 KBGM 230500
TAFSYR
TAF
KSYR 230540Z 2306/2406 22010KT P6SM SCT025 OVC035 WS020/25048KT
      TEMPO 2306/2310 -SHRA OVC025
     FM231000 22008KT P6SM OVC030
     FM232000 14006KT P6SM SCT040 BKN060
     FM240300 12009KT P6SM FEW025 BKN120 WS015/18045KT=

USA.gov is the U.S. government's official web portal to all federal, state and local government web resources and services.